Brant, Michigan
Current Conditions -  °F | °C
As of 2:34 AM on Sunday 23 Nov 2014 (Local Time) from KRNP Reporting Station
Overcast Overcast  
Wind Chill: 46°   Ceiling: 2200
Heat Index: 49°   Visibility: 10mi
Dew Point: 45°   Wind: 8mph
Humidity: 86%   Direction: 200°SSW
Pressure: 29.9"   Gusts: NA
Location:  43.26°N, 84.23°W
Report Text: KRNP 230734Z AUTO 20007KT 10SM BKN022 BKN028 OVC060 10/07 A2990 RMK AO2 T00960074
Loading
Personal Weather Stations






























Interactive Weather Map New forecast layout! Learn more

10-Day Weather Forecast

Advertisements
Track Severe Weather on mobile